sensor_id;sensor_type;location;lat;lon;timestamp;P1;durP1;ratioP1;P2;durP2;ratioP2
4738;SDS011;2383;48.632;10.156;2022-08-11T00:01:22;5.93;;;2.20;;
4738;SDS011;2383;48.632;10.156;2022-08-11T00:05:25;3.47;;;2.40;;
4738;SDS011;2383;48.632;10.156;2022-08-11T00:09:31;4.25;;;2.33;;
4738;SDS011;2383;48.632;10.156;2022-08-11T00:13:44;2.78;;;2.47;;
4738;SDS011;2383;48.632;10.156;2022-08-11T00:17:48;5.20;;;2.35;;
4738;SDS011;2383;48.632;10.156;2022-08-11T00:21:56;4.32;;;2.55;;
4738;SDS011;2383;48.632;10.156;2022-08-11T00:26:06;2.60;;;2.40;;
4738;SDS011;2383;48.632;10.156;2022-08-11T00:30:09;3.47;;;2.25;;
4738;SDS011;2383;48.632;10.156;2022-08-11T00:34:13;3.35;;;2.70;;
4738;SDS011;2383;48.632;10.156;2022-08-11T00:38:22;4.68;;;2.40;;
4738;SDS011;2383;48.632;10.156;2022-08-11T00:42:46;5.68;;;2.50;;
4738;SDS011;2383;48.632;10.156;2022-08-11T01:05:22;3.72;;;2.60;;
4738;SDS011;2383;48.632;10.156;2022-08-11T01:14:07;2.78;;;2.40;;
4738;SDS011;2383;48.632;10.156;2022-08-11T01:57:41;8.27;;;2.60;;
4738;SDS011;2383;48.632;10.156;2022-08-11T02:15:34;5.05;;;2.72;;
4738;SDS011;2383;48.632;10.156;2022-08-11T02:19:53;4.10;;;2.70;;
4738;SDS011;2383;48.632;10.156;2022-08-11T02:24:22;3.35;;;2.80;;
4738;SDS011;2383;48.632;10.156;2022-08-11T02:32:50;3.20;;;2.63;;
4738;SDS011;2383;48.632;10.156;2022-08-11T02:46:38;3.78;;;3.03;;
4738;SDS011;2383;48.632;10.156;2022-08-11T02:55:17;4.78;;;2.72;;
4738;SDS011;2383;48.632;10.156;2022-08-11T02:59:46;4.32;;;3.13;;
4738;SDS011;2383;48.632;10.156;2022-08-11T03:04:05;3.15;;;2.80;;
4738;SDS011;2383;48.632;10.156;2022-08-11T03:08:28;5.47;;;3.40;;
4738;SDS011;2383;48.632;10.156;2022-08-11T03:21:31;3.53;;;2.80;;
4738;SDS011;2383;48.632;10.156;2022-08-11T03:26:23;3.88;;;3.10;;
4738;SDS011;2383;48.632;10.156;2022-08-11T03:30:47;4.30;;;3.05;;
4738;SDS011;2383;48.632;10.156;2022-08-11T03:35:08;7.78;;;3.25;;
4738;SDS011;2383;48.632;10.156;2022-08-11T03:39:27;3.40;;;2.88;;
4738;SDS011;2383;48.632;10.156;2022-08-11T03:44:06;4.00;;;3.47;;
4738;SDS011;2383;48.632;10.156;2022-08-11T03:48:46;5.45;;;2.92;;
4738;SDS011;2383;48.632;10.156;2022-08-11T03:53:01;3.28;;;3.05;;
4738;SDS011;2383;48.632;10.156;2022-08-11T04:57:02;10.23;;;3.47;;
4738;SDS011;2383;48.632;10.156;2022-08-11T05:10:37;8.35;;;3.80;;
4738;SDS011;2383;48.632;10.156;2022-08-11T05:14:50;7.05;;;4.10;;
4738;SDS011;2383;48.632;10.156;2022-08-11T05:19:15;7.57;;;4.00;;
4738;SDS011;2383;48.632;10.156;2022-08-11T05:23:39;7.50;;;4.22;;
4738;SDS011;2383;48.632;10.156;2022-08-11T05:28:11;9.02;;;4.28;;
4738;SDS011;2383;48.632;10.156;2022-08-11T05:32:36;7.80;;;4.50;;
4738;SDS011;2383;48.632;10.156;2022-08-11T05:37:03;7.32;;;4.18;;
4738;SDS011;2383;48.632;10.156;2022-08-11T05:41:27;7.68;;;4.07;;
4738;SDS011;2383;48.632;10.156;2022-08-11T05:45:56;6.60;;;3.83;;
4738;SDS011;2383;48.632;10.156;2022-08-11T05:50:25;7.68;;;3.97;;
4738;SDS011;2383;48.632;10.156;2022-08-11T05:54:46;4.55;;;3.88;;
4738;SDS011;2383;48.632;10.156;2022-08-11T05:59:12;6.80;;;3.15;;
4738;SDS011;2383;48.632;10.156;2022-08-11T06:03:24;3.92;;;3.47;;
4738;SDS011;2383;48.632;10.156;2022-08-11T06:07:29;5.20;;;3.10;;
4738;SDS011;2383;48.632;10.156;2022-08-11T06:11:49;5.00;;;3.05;;
4738;SDS011;2383;48.632;10.156;2022-08-11T06:15:51;5.57;;;3.15;;
4738;SDS011;2383;48.632;10.156;2022-08-11T06:19:59;8.77;;;3.58;;
4738;SDS011;2383;48.632;10.156;2022-08-11T06:24:11;4.85;;;3.20;;
4738;SDS011;2383;48.632;10.156;2022-08-11T06:28:14;3.35;;;3.05;;
4738;SDS011;2383;48.632;10.156;2022-08-11T06:32:28;5.88;;;2.92;;
4738;SDS011;2383;48.632;10.156;2022-08-11T06:36:51;6.10;;;3.00;;
4738;SDS011;2383;48.632;10.156;2022-08-11T06:41:15;5.25;;;3.20;;
4738;SDS011;2383;48.632;10.156;2022-08-11T06:49:51;5.43;;;3.33;;
4738;SDS011;2383;48.632;10.156;2022-08-11T06:54:16;6.13;;;3.22;;
4738;SDS011;2383;48.632;10.156;2022-08-11T06:58:20;6.50;;;2.95;;
4738;SDS011;2383;48.632;10.156;2022-08-11T07:02:46;6.80;;;3.25;;
4738;SDS011;2383;48.632;10.156;2022-08-11T07:07:03;3.22;;;2.95;;
4738;SDS011;2383;48.632;10.156;2022-08-11T07:16:05;5.97;;;3.13;;
4738;SDS011;2383;48.632;10.156;2022-08-11T07:20:14;5.15;;;2.78;;
4738;SDS011;2383;48.632;10.156;2022-08-11T07:24:56;5.20;;;2.78;;
4738;SDS011;2383;48.632;10.156;2022-08-11T07:29:20;3.08;;;2.78;;
4738;SDS011;2383;48.632;10.156;2022-08-11T07:33:24;4.32;;;2.65;;
4738;SDS011;2383;48.632;10.156;2022-08-11T07:37:55;7.57;;;2.83;;
4738;SDS011;2383;48.632;10.156;2022-08-11T07:42:04;3.83;;;2.50;;
4738;SDS011;2383;48.632;10.156;2022-08-11T07:46:10;6.82;;;2.88;;
4738;SDS011;2383;48.632;10.156;2022-08-11T07:50:31;5.25;;;2.75;;
4738;SDS011;2383;48.632;10.156;2022-08-11T07:55:07;5.05;;;2.60;;
4738;SDS011;2383;48.632;10.156;2022-08-11T07:59:10;4.35;;;3.05;;
4738;SDS011;2383;48.632;10.156;2022-08-11T08:03:51;5.72;;;2.67;;
4738;SDS011;2383;48.632;10.156;2022-08-11T08:08:12;3.40;;;2.40;;
4738;SDS011;2383;48.632;10.156;2022-08-11T08:12:34;10.73;;;2.92;;
4738;SDS011;2383;48.632;10.156;2022-08-11T08:16:55;4.95;;;2.55;;
4738;SDS011;2383;48.632;10.156;2022-08-11T08:21:17;3.13;;;2.67;;
4738;SDS011;2383;48.632;10.156;2022-08-11T08:25:19;2.47;;;2.25;;
4738;SDS011;2383;48.632;10.156;2022-08-11T08:29:20;5.30;;;2.45;;
4738;SDS011;2383;48.632;10.156;2022-08-11T08:33:41;3.58;;;2.55;;
4738;SDS011;2383;48.632;10.156;2022-08-11T08:37:43;2.88;;;2.35;;
4738;SDS011;2383;48.632;10.156;2022-08-11T08:41:48;7.30;;;2.80;;
4738;SDS011;2383;48.632;10.156;2022-08-11T08:45:54;3.20;;;2.50;;
4738;SDS011;2383;48.632;10.156;2022-08-11T08:50:15;3.38;;;2.58;;
4738;SDS011;2383;48.632;10.156;2022-08-11T08:54:29;4.13;;;2.50;;
4738;SDS011;2383;48.632;10.156;2022-08-11T08:58:42;4.97;;;2.42;;
4738;SDS011;2383;48.632;10.156;2022-08-11T09:02:51;3.70;;;2.42;;
4738;SDS011;2383;48.632;10.156;2022-08-11T09:06:54;4.63;;;1.90;;
4738;SDS011;2383;48.632;10.156;2022-08-11T09:10:59;4.47;;;2.17;;
4738;SDS011;2383;48.632;10.156;2022-08-11T09:15:21;5.07;;;2.00;;
4738;SDS011;2383;48.632;10.156;2022-08-11T09:19:24;4.15;;;1.90;;
4738;SDS011;2383;48.632;10.156;2022-08-11T09:23:26;3.58;;;2.00;;
4738;SDS011;2383;48.632;10.156;2022-08-11T09:28:10;3.13;;;2.22;;
4738;SDS011;2383;48.632;10.156;2022-08-11T09:32:14;2.92;;;2.22;;
4738;SDS011;2383;48.632;10.156;2022-08-11T09:36:21;4.18;;;2.38;;
4738;SDS011;2383;48.632;10.156;2022-08-11T09:40:44;4.43;;;1.70;;
4738;SDS011;2383;48.632;10.156;2022-08-11T09:44:57;3.83;;;2.25;;
4738;SDS011;2383;48.632;10.156;2022-08-11T09:49:02;4.30;;;1.92;;
4738;SDS011;2383;48.632;10.156;2022-08-11T09:53:05;1.85;;;1.70;;
4738;SDS011;2383;48.632;10.156;2022-08-11T09:57:27;4.72;;;1.95;;
4738;SDS011;2383;48.632;10.156;2022-08-11T10:01:49;2.53;;;1.70;;
4738;SDS011;2383;48.632;10.156;2022-08-11T10:06:00;4.70;;;1.75;;
4738;SDS011;2383;48.632;10.156;2022-08-11T10:10:35;5.55;;;1.65;;
4738;SDS011;2383;48.632;10.156;2022-08-11T10:14:45;7.15;;;1.98;;
4738;SDS011;2383;48.632;10.156;2022-08-11T10:19:09;4.47;;;1.80;;
4738;SDS011;2383;48.632;10.156;2022-08-11T10:23:11;4.30;;;1.70;;
4738;SDS011;2383;48.632;10.156;2022-08-11T10:27:32;3.90;;;1.80;;
4738;SDS011;2383;48.632;10.156;2022-08-11T10:31:56;5.30;;;1.80;;
4738;SDS011;2383;48.632;10.156;2022-08-11T10:36:17;6.10;;;2.30;;
4738;SDS011;2383;48.632;10.156;2022-08-11T10:40:21;2.30;;;2.05;;
4738;SDS011;2383;48.632;10.156;2022-08-11T10:44:24;3.53;;;1.85;;
4738;SDS011;2383;48.632;10.156;2022-08-11T10:48:26;7.25;;;2.08;;
4738;SDS011;2383;48.632;10.156;2022-08-11T10:52:41;8.73;;;2.60;;
4738;SDS011;2383;48.632;10.156;2022-08-11T10:57:05;4.30;;;1.70;;
4738;SDS011;2383;48.632;10.156;2022-08-11T11:01:35;3.28;;;1.60;;
4738;SDS011;2383;48.632;10.156;2022-08-11T11:05:39;5.85;;;1.75;;
4738;SDS011;2383;48.632;10.156;2022-08-11T11:10:03;3.55;;;1.92;;
4738;SDS011;2383;48.632;10.156;2022-08-11T11:14:11;3.10;;;1.80;;
4738;SDS011;2383;48.632;10.156;2022-08-11T11:18:46;3.10;;;1.90;;
4738;SDS011;2383;48.632;10.156;2022-08-11T11:23:11;6.25;;;1.85;;
4738;SDS011;2383;48.632;10.156;2022-08-11T11:27:22;2.13;;;1.83;;
4738;SDS011;2383;48.632;10.156;2022-08-11T11:40:05;2.92;;;1.73;;
4738;SDS011;2383;48.632;10.156;2022-08-11T11:44:13;3.05;;;1.60;;
4738;SDS011;2383;48.632;10.156;2022-08-11T11:48:15;2.45;;;1.70;;
4738;SDS011;2383;48.632;10.156;2022-08-11T11:52:18;2.92;;;1.70;;
4738;SDS011;2383;48.632;10.156;2022-08-11T11:56:23;2.90;;;1.85;;
4738;SDS011;2383;48.632;10.156;2022-08-11T12:00:26;2.78;;;1.67;;
4738;SDS011;2383;48.632;10.156;2022-08-11T12:04:48;1.92;;;1.60;;
4738;SDS011;2383;48.632;10.156;2022-08-11T12:08:53;2.50;;;1.52;;
4738;SDS011;2383;48.632;10.156;2022-08-11T12:12:58;2.35;;;1.50;;
4738;SDS011;2383;48.632;10.156;2022-08-11T12:17:20;2.28;;;1.75;;
4738;SDS011;2383;48.632;10.156;2022-08-11T12:21:23;1.55;;;1.45;;
4738;SDS011;2383;48.632;10.156;2022-08-11T12:25:26;2.97;;;1.35;;
4738;SDS011;2383;48.632;10.156;2022-08-11T12:29:47;1.60;;;1.50;;
4738;SDS011;2383;48.632;10.156;2022-08-11T12:34:01;2.92;;;1.70;;
4738;SDS011;2383;48.632;10.156;2022-08-11T12:38:08;3.17;;;1.90;;
4738;SDS011;2383;48.632;10.156;2022-08-11T12:42:13;3.33;;;1.60;;
4738;SDS011;2383;48.632;10.156;2022-08-11T12:46:39;3.42;;;1.40;;
4738;SDS011;2383;48.632;10.156;2022-08-11T12:50:44;2.33;;;1.52;;
4738;SDS011;2383;48.632;10.156;2022-08-11T12:55:10;2.67;;;1.70;;
4738;SDS011;2383;48.632;10.156;2022-08-11T12:59:34;2.25;;;1.58;;
4738;SDS011;2383;48.632;10.156;2022-08-11T13:03:58;4.43;;;1.50;;
4738;SDS011;2383;48.632;10.156;2022-08-11T13:08:19;2.05;;;1.60;;
4738;SDS011;2383;48.632;10.156;2022-08-11T13:12:26;3.95;;;1.67;;
4738;SDS011;2383;48.632;10.156;2022-08-11T13:16:48;2.95;;;1.73;;
4738;SDS011;2383;48.632;10.156;2022-08-11T13:21:12;5.43;;;1.60;;
4738;SDS011;2383;48.632;10.156;2022-08-11T13:25:22;2.72;;;1.52;;
4738;SDS011;2383;48.632;10.156;2022-08-11T13:29:30;2.13;;;1.50;;
4738;SDS011;2383;48.632;10.156;2022-08-11T13:33:32;1.90;;;1.60;;
4738;SDS011;2383;48.632;10.156;2022-08-11T13:37:41;3.28;;;1.52;;
4738;SDS011;2383;48.632;10.156;2022-08-11T13:42:05;3.22;;;1.60;;
4738;SDS011;2383;48.632;10.156;2022-08-11T13:46:08;1.85;;;1.30;;
4738;SDS011;2383;48.632;10.156;2022-08-11T13:50:28;2.38;;;1.50;;
4738;SDS011;2383;48.632;10.156;2022-08-11T13:54:51;5.00;;;1.98;;
4738;SDS011;2383;48.632;10.156;2022-08-11T13:58:54;5.30;;;1.52;;
4738;SDS011;2383;48.632;10.156;2022-08-11T14:02:57;1.55;;;1.33;;
4738;SDS011;2383;48.632;10.156;2022-08-11T14:07:05;3.30;;;1.50;;
4738;SDS011;2383;48.632;10.156;2022-08-11T14:11:08;2.60;;;1.60;;
4738;SDS011;2383;48.632;10.156;2022-08-11T14:15:51;2.63;;;1.60;;
4738;SDS011;2383;48.632;10.156;2022-08-11T14:19:53;1.80;;;1.30;;
4738;SDS011;2383;48.632;10.156;2022-08-11T14:23:56;5.30;;;1.40;;
4738;SDS011;2383;48.632;10.156;2022-08-11T14:28:01;5.10;;;1.90;;
4738;SDS011;2383;48.632;10.156;2022-08-11T14:32:26;4.03;;;1.55;;
4738;SDS011;2383;48.632;10.156;2022-08-11T14:36:29;2.42;;;1.40;;
4738;SDS011;2383;48.632;10.156;2022-08-11T14:40:34;3.80;;;1.60;;
4738;SDS011;2383;48.632;10.156;2022-08-11T14:44:59;3.72;;;1.45;;
4738;SDS011;2383;48.632;10.156;2022-08-11T14:49:24;7.13;;;1.75;;
4738;SDS011;2383;48.632;10.156;2022-08-11T14:53:27;2.08;;;1.52;;
4738;SDS011;2383;48.632;10.156;2022-08-11T14:57:30;1.35;;;1.25;;
4738;SDS011;2383;48.632;10.156;2022-08-11T15:01:55;2.78;;;1.50;;
4738;SDS011;2383;48.632;10.156;2022-08-11T15:06:16;3.33;;;1.50;;
4738;SDS011;2383;48.632;10.156;2022-08-11T15:10:18;3.60;;;1.38;;
4738;SDS011;2383;48.632;10.156;2022-08-11T15:14:21;4.82;;;1.58;;
4738;SDS011;2383;48.632;10.156;2022-08-11T15:18:42;1.77;;;1.50;;
4738;SDS011;2383;48.632;10.156;2022-08-11T15:22:44;2.28;;;1.40;;
4738;SDS011;2383;48.632;10.156;2022-08-11T15:27:04;3.70;;;1.33;;
4738;SDS011;2383;48.632;10.156;2022-08-11T15:31:33;2.20;;;1.42;;
4738;SDS011;2383;48.632;10.156;2022-08-11T15:35:59;4.95;;;2.03;;
4738;SDS011;2383;48.632;10.156;2022-08-11T15:40:22;1.85;;;1.40;;
4738;SDS011;2383;48.632;10.156;2022-08-11T15:44:55;1.58;;;1.40;;
4738;SDS011;2383;48.632;10.156;2022-08-11T15:49:21;3.47;;;1.48;;
4738;SDS011;2383;48.632;10.156;2022-08-11T15:53:58;1.63;;;1.40;;
4738;SDS011;2383;48.632;10.156;2022-08-11T15:58:09;6.00;;;1.70;;
4738;SDS011;2383;48.632;10.156;2022-08-11T16:02:31;3.70;;;1.55;;
4738;SDS011;2383;48.632;10.156;2022-08-11T16:07:26;5.00;;;1.90;;
4738;SDS011;2383;48.632;10.156;2022-08-11T16:11:27;3.38;;;1.75;;
4738;SDS011;2383;48.632;10.156;2022-08-11T16:19:54;3.83;;;1.88;;
4738;SDS011;2383;48.632;10.156;2022-08-11T16:23:59;4.75;;;1.85;;
4738;SDS011;2383;48.632;10.156;2022-08-11T16:28:03;3.08;;;1.83;;
4738;SDS011;2383;48.632;10.156;2022-08-11T16:32:06;3.10;;;1.60;;
4738;SDS011;2383;48.632;10.156;2022-08-11T16:36:17;1.73;;;1.50;;
4738;SDS011;2383;48.632;10.156;2022-08-11T16:40:42;1.90;;;1.65;;
4738;SDS011;2383;48.632;10.156;2022-08-11T16:44:47;2.63;;;1.60;;
4738;SDS011;2383;48.632;10.156;2022-08-11T16:49:09;1.75;;;1.52;;
4738;SDS011;2383;48.632;10.156;2022-08-11T16:53:38;3.33;;;1.50;;
4738;SDS011;2383;48.632;10.156;2022-08-11T16:58:02;2.47;;;1.83;;
4738;SDS011;2383;48.632;10.156;2022-08-11T17:02:27;5.22;;;1.73;;
4738;SDS011;2383;48.632;10.156;2022-08-11T17:06:53;4.78;;;1.75;;
4738;SDS011;2383;48.632;10.156;2022-08-11T17:11:41;2.72;;;1.88;;
4738;SDS011;2383;48.632;10.156;2022-08-11T17:16:10;3.42;;;1.88;;
4738;SDS011;2383;48.632;10.156;2022-08-11T17:20:25;1.70;;;1.60;;
4738;SDS011;2383;48.632;10.156;2022-08-11T17:24:44;5.57;;;1.85;;
4738;SDS011;2383;48.632;10.156;2022-08-11T17:28:49;3.47;;;1.80;;
4738;SDS011;2383;48.632;10.156;2022-08-11T17:32:56;3.72;;;1.70;;
4738;SDS011;2383;48.632;10.156;2022-08-11T17:37:20;2.90;;;1.85;;
4738;SDS011;2383;48.632;10.156;2022-08-11T17:41:23;2.97;;;1.83;;
4738;SDS011;2383;48.632;10.156;2022-08-11T17:45:44;3.22;;;1.88;;
4738;SDS011;2383;48.632;10.156;2022-08-11T17:50:08;2.55;;;2.35;;
4738;SDS011;2383;48.632;10.156;2022-08-11T17:54:18;8.50;;;2.33;;
4738;SDS011;2383;48.632;10.156;2022-08-11T17:58:41;5.43;;;2.05;;
4738;SDS011;2383;48.632;10.156;2022-08-11T18:03:03;2.58;;;1.48;;
4738;SDS011;2383;48.632;10.156;2022-08-11T18:07:26;5.45;;;1.75;;
4738;SDS011;2383;48.632;10.156;2022-08-11T18:11:49;4.75;;;1.73;;
4738;SDS011;2383;48.632;10.156;2022-08-11T18:16:13;3.97;;;1.65;;
4738;SDS011;2383;48.632;10.156;2022-08-11T18:20:33;5.57;;;1.73;;
4738;SDS011;2383;48.632;10.156;2022-08-11T18:25:09;3.45;;;1.70;;
4738;SDS011;2383;48.632;10.156;2022-08-11T18:29:33;7.38;;;1.90;;
4738;SDS011;2383;48.632;10.156;2022-08-11T18:33:55;1.98;;;1.60;;
4738;SDS011;2383;48.632;10.156;2022-08-11T18:38:21;2.22;;;1.80;;
4738;SDS011;2383;48.632;10.156;2022-08-11T18:42:46;3.90;;;2.00;;
4738;SDS011;2383;48.632;10.156;2022-08-11T18:47:09;5.68;;;2.10;;
4738;SDS011;2383;48.632;10.156;2022-08-11T18:51:33;3.17;;;2.20;;
4738;SDS011;2383;48.632;10.156;2022-08-11T18:56:03;6.07;;;1.98;;
4738;SDS011;2383;48.632;10.156;2022-08-11T19:00:24;6.05;;;2.08;;
4738;SDS011;2383;48.632;10.156;2022-08-11T19:04:46;3.15;;;1.85;;
4738;SDS011;2383;48.632;10.156;2022-08-11T19:09:09;3.30;;;1.65;;
4738;SDS011;2383;48.632;10.156;2022-08-11T19:13:33;5.72;;;1.90;;
4738;SDS011;2383;48.632;10.156;2022-08-11T19:17:56;9.60;;;2.40;;
4738;SDS011;2383;48.632;10.156;2022-08-11T19:22:17;3.55;;;1.80;;
4738;SDS011;2383;48.632;10.156;2022-08-11T19:26:39;7.25;;;2.60;;
4738;SDS011;2383;48.632;10.156;2022-08-11T19:31:02;4.13;;;2.22;;
4738;SDS011;2383;48.632;10.156;2022-08-11T19:35:23;3.83;;;2.10;;
4738;SDS011;2383;48.632;10.156;2022-08-11T19:39:47;10.43;;;2.45;;
4738;SDS011;2383;48.632;10.156;2022-08-11T19:44:08;14.20;;;2.30;;
4738;SDS011;2383;48.632;10.156;2022-08-11T19:48:30;7.18;;;2.47;;
4738;SDS011;2383;48.632;10.156;2022-08-11T19:52:52;5.30;;;2.50;;
4738;SDS011;2383;48.632;10.156;2022-08-11T19:57:18;3.53;;;2.03;;
4738;SDS011;2383;48.632;10.156;2022-08-11T20:01:40;5.20;;;2.15;;
4738;SDS011;2383;48.632;10.156;2022-08-11T20:06:14;5.93;;;2.30;;
4738;SDS011;2383;48.632;10.156;2022-08-11T20:10:36;8.65;;;2.60;;
4738;SDS011;2383;48.632;10.156;2022-08-11T20:14:58;6.28;;;2.38;;
4738;SDS011;2383;48.632;10.156;2022-08-11T20:19:25;5.45;;;2.60;;
4738;SDS011;2383;48.632;10.156;2022-08-11T20:23:56;5.35;;;2.50;;
4738;SDS011;2383;48.632;10.156;2022-08-11T20:28:19;5.03;;;2.42;;
4738;SDS011;2383;48.632;10.156;2022-08-11T20:32:40;4.90;;;2.65;;
4738;SDS011;2383;48.632;10.156;2022-08-11T20:37:02;6.20;;;2.65;;
4738;SDS011;2383;48.632;10.156;2022-08-11T20:41:23;4.65;;;2.45;;
4738;SDS011;2383;48.632;10.156;2022-08-11T20:46:00;7.90;;;3.10;;
4738;SDS011;2383;48.632;10.156;2022-08-11T20:50:21;11.70;;;2.92;;
4738;SDS011;2383;48.632;10.156;2022-08-11T20:54:46;3.80;;;2.55;;
4738;SDS011;2383;48.632;10.156;2022-08-11T20:59:20;5.55;;;2.90;;
4738;SDS011;2383;48.632;10.156;2022-08-11T21:03:57;5.28;;;3.10;;
4738;SDS011;2383;48.632;10.156;2022-08-11T21:08:21;6.45;;;3.13;;
4738;SDS011;2383;48.632;10.156;2022-08-11T21:12:47;5.82;;;2.90;;
4738;SDS011;2383;48.632;10.156;2022-08-11T21:17:26;6.38;;;2.30;;
4738;SDS011;2383;48.632;10.156;2022-08-11T21:22:07;4.68;;;2.70;;
4738;SDS011;2383;48.632;10.156;2022-08-11T21:26:34;3.42;;;2.00;;
4738;SDS011;2383;48.632;10.156;2022-08-11T21:31:04;6.15;;;2.33;;
4738;SDS011;2383;48.632;10.156;2022-08-11T21:35:27;5.97;;;2.28;;
4738;SDS011;2383;48.632;10.156;2022-08-11T21:39:48;5.70;;;2.50;;
4738;SDS011;2383;48.632;10.156;2022-08-11T21:44:17;5.85;;;2.55;;
4738;SDS011;2383;48.632;10.156;2022-08-11T21:48:38;4.93;;;2.40;;
4738;SDS011;2383;48.632;10.156;2022-08-11T21:52:59;3.58;;;2.42;;
4738;SDS011;2383;48.632;10.156;2022-08-11T21:57:20;6.07;;;2.75;;
4738;SDS011;2383;48.632;10.156;2022-08-11T22:01:50;6.20;;;2.53;;
4738;SDS011;2383;48.632;10.156;2022-08-11T22:06:13;6.80;;;2.55;;
4738;SDS011;2383;48.632;10.156;2022-08-11T22:10:36;5.18;;;2.70;;
4738;SDS011;2383;48.632;10.156;2022-08-11T22:15:02;3.75;;;2.75;;
4738;SDS011;2383;48.632;10.156;2022-08-11T22:19:23;2.97;;;2.65;;
4738;SDS011;2383;48.632;10.156;2022-08-11T22:23:43;2.97;;;2.47;;
4738;SDS011;2383;48.632;10.156;2022-08-11T22:28:08;5.63;;;2.67;;
4738;SDS011;2383;48.632;10.156;2022-08-11T22:32:28;6.15;;;2.53;;
4738;SDS011;2383;48.632;10.156;2022-08-11T22:36:49;5.70;;;2.80;;
4738;SDS011;2383;48.632;10.156;2022-08-11T22:41:27;3.42;;;2.60;;
4738;SDS011;2383;48.632;10.156;2022-08-11T22:45:48;4.53;;;2.38;;
4738;SDS011;2383;48.632;10.156;2022-08-11T22:50:08;2.92;;;2.60;;
4738;SDS011;2383;48.632;10.156;2022-08-11T22:54:29;6.47;;;2.60;;
4738;SDS011;2383;48.632;10.156;2022-08-11T22:58:52;5.70;;;2.80;;
4738;SDS011;2383;48.632;10.156;2022-08-11T23:03:14;5.97;;;2.50;;
4738;SDS011;2383;48.632;10.156;2022-08-11T23:07:38;3.40;;;2.55;;
4738;SDS011;2383;48.632;10.156;2022-08-11T23:12:00;3.95;;;2.80;;
4738;SDS011;2383;48.632;10.156;2022-08-11T23:16:21;6.45;;;2.60;;
4738;SDS011;2383;48.632;10.156;2022-08-11T23:20:42;6.53;;;2.65;;
4738;SDS011;2383;48.632;10.156;2022-08-11T23:25:04;5.90;;;2.85;;
4738;SDS011;2383;48.632;10.156;2022-08-11T23:29:25;4.25;;;3.10;;
4738;SDS011;2383;48.632;10.156;2022-08-11T23:33:48;3.65;;;2.50;;
4738;SDS011;2383;48.632;10.156;2022-08-11T23:38:32;6.05;;;2.80;;
4738;SDS011;2383;48.632;10.156;2022-08-11T23:42:52;4.03;;;2.60;;
4738;SDS011;2383;48.632;10.156;2022-08-11T23:47:14;6.47;;;3.00;;
4738;SDS011;2383;48.632;10.156;2022-08-11T23:51:50;6.88;;;3.17;;
4738;SDS011;2383;48.632;10.156;2022-08-11T23:56:11;4.10;;;2.90;;
